sensor_id;sensor_type;location;lat;lon;timestamp;P1;durP1;ratioP1;P2;durP2;ratioP2
5351;SDS011;2698;51.454;6.736;2022-12-07T00:01:51;35.23;;;13.80;;
5351;SDS011;2698;51.454;6.736;2022-12-07T00:04:17;20.77;;;13.77;;
5351;SDS011;2698;51.454;6.736;2022-12-07T00:06:45;18.73;;;14.70;;
5351;SDS011;2698;51.454;6.736;2022-12-07T00:09:16;16.67;;;13.37;;
5351;SDS011;2698;51.454;6.736;2022-12-07T00:11:44;14.70;;;13.07;;
5351;SDS011;2698;51.454;6.736;2022-12-07T00:14:17;21.30;;;15.40;;
5351;SDS011;2698;51.454;6.736;2022-12-07T00:16:44;19.67;;;15.70;;
5351;SDS011;2698;51.454;6.736;2022-12-07T00:19:12;23.40;;;15.47;;
5351;SDS011;2698;51.454;6.736;2022-12-07T00:21:39;21.73;;;15.60;;
5351;SDS011;2698;51.454;6.736;2022-12-07T00:24:06;17.37;;;14.60;;
5351;SDS011;2698;51.454;6.736;2022-12-07T00:26:34;23.00;;;16.20;;
5351;SDS011;2698;51.454;6.736;2022-12-07T00:29:03;21.57;;;15.97;;
5351;SDS011;2698;51.454;6.736;2022-12-07T00:31:33;21.37;;;16.07;;
5351;SDS011;2698;51.454;6.736;2022-12-07T00:34:03;18.47;;;15.60;;
5351;SDS011;2698;51.454;6.736;2022-12-07T00:36:30;17.70;;;15.40;;
5351;SDS011;2698;51.454;6.736;2022-12-07T00:38:59;23.27;;;17.73;;
5351;SDS011;2698;51.454;6.736;2022-12-07T00:41:27;24.67;;;16.47;;
5351;SDS011;2698;51.454;6.736;2022-12-07T00:43:55;16.63;;;14.57;;
5351;SDS011;2698;51.454;6.736;2022-12-07T00:46:22;18.33;;;16.20;;
5351;SDS011;2698;51.454;6.736;2022-12-07T00:48:51;20.70;;;15.67;;
5351;SDS011;2698;51.454;6.736;2022-12-07T00:51:20;21.40;;;15.33;;
5351;SDS011;2698;51.454;6.736;2022-12-07T00:53:49;19.70;;;15.93;;
5351;SDS011;2698;51.454;6.736;2022-12-07T00:56:17;20.63;;;16.43;;
5351;SDS011;2698;51.454;6.736;2022-12-07T00:58:49;21.10;;;17.30;;
5351;SDS011;2698;51.454;6.736;2022-12-07T01:01:17;22.07;;;15.97;;
5351;SDS011;2698;51.454;6.736;2022-12-07T01:03:43;24.90;;;17.27;;
5351;SDS011;2698;51.454;6.736;2022-12-07T01:06:14;27.07;;;17.20;;
5351;SDS011;2698;51.454;6.736;2022-12-07T01:08:41;28.13;;;17.20;;
5351;SDS011;2698;51.454;6.736;2022-12-07T01:11:09;21.83;;;16.33;;
5351;SDS011;2698;51.454;6.736;2022-12-07T01:13:39;20.50;;;15.97;;
5351;SDS011;2698;51.454;6.736;2022-12-07T01:16:06;25.00;;;16.33;;
5351;SDS011;2698;51.454;6.736;2022-12-07T01:18:35;22.47;;;17.30;;
5351;SDS011;2698;51.454;6.736;2022-12-07T01:21:04;18.73;;;15.87;;
5351;SDS011;2698;51.454;6.736;2022-12-07T01:23:34;22.47;;;17.70;;
5351;SDS011;2698;51.454;6.736;2022-12-07T01:26:02;20.60;;;15.20;;
5351;SDS011;2698;51.454;6.736;2022-12-07T01:28:30;19.00;;;15.67;;
5351;SDS011;2698;51.454;6.736;2022-12-07T01:30:58;21.20;;;15.37;;
5351;SDS011;2698;51.454;6.736;2022-12-07T01:33:26;19.67;;;15.67;;
5351;SDS011;2698;51.454;6.736;2022-12-07T01:35:54;19.90;;;15.70;;
5351;SDS011;2698;51.454;6.736;2022-12-07T01:38:21;23.57;;;16.00;;
5351;SDS011;2698;51.454;6.736;2022-12-07T01:40:54;21.77;;;15.70;;
5351;SDS011;2698;51.454;6.736;2022-12-07T01:43:22;21.70;;;16.00;;
5351;SDS011;2698;51.454;6.736;2022-12-07T01:45:51;21.67;;;16.33;;
5351;SDS011;2698;51.454;6.736;2022-12-07T01:48:19;18.37;;;14.73;;
5351;SDS011;2698;51.454;6.736;2022-12-07T01:50:48;23.30;;;15.00;;
5351;SDS011;2698;51.454;6.736;2022-12-07T01:53:17;20.73;;;15.60;;
5351;SDS011;2698;51.454;6.736;2022-12-07T01:55:45;24.37;;;17.07;;
5351;SDS011;2698;51.454;6.736;2022-12-07T01:58:17;18.03;;;15.57;;
5351;SDS011;2698;51.454;6.736;2022-12-07T02:00:43;16.00;;;13.70;;
5351;SDS011;2698;51.454;6.736;2022-12-07T02:03:11;14.77;;;13.17;;
5351;SDS011;2698;51.454;6.736;2022-12-07T02:05:41;19.20;;;14.10;;
5351;SDS011;2698;51.454;6.736;2022-12-07T02:08:10;20.57;;;15.30;;
5351;SDS011;2698;51.454;6.736;2022-12-07T02:10:38;17.33;;;13.63;;
5351;SDS011;2698;51.454;6.736;2022-12-07T02:13:06;22.67;;;16.73;;
5351;SDS011;2698;51.454;6.736;2022-12-07T02:15:41;24.73;;;14.80;;
5351;SDS011;2698;51.454;6.736;2022-12-07T02:18:30;20.57;;;14.93;;
5351;SDS011;2698;51.454;6.736;2022-12-07T02:21:10;21.57;;;14.33;;
5351;SDS011;2698;51.454;6.736;2022-12-07T02:29:44;24.93;;;16.47;;
5351;SDS011;2698;51.454;6.736;2022-12-07T02:32:16;22.37;;;17.10;;
5351;SDS011;2698;51.454;6.736;2022-12-07T02:34:48;31.87;;;17.23;;
5351;SDS011;2698;51.454;6.736;2022-12-07T02:37:19;20.47;;;15.63;;
5351;SDS011;2698;51.454;6.736;2022-12-07T02:39:53;23.23;;;15.20;;
5351;SDS011;2698;51.454;6.736;2022-12-07T02:42:27;22.73;;;14.90;;
5351;SDS011;2698;51.454;6.736;2022-12-07T02:44:59;20.87;;;16.17;;
5351;SDS011;2698;51.454;6.736;2022-12-07T02:47:27;20.93;;;16.80;;
5351;SDS011;2698;51.454;6.736;2022-12-07T02:49:55;21.20;;;16.80;;
5351;SDS011;2698;51.454;6.736;2022-12-07T02:52:22;26.73;;;16.37;;
5351;SDS011;2698;51.454;6.736;2022-12-07T02:54:49;22.30;;;16.70;;
5351;SDS011;2698;51.454;6.736;2022-12-07T02:57:22;20.07;;;15.50;;
5351;SDS011;2698;51.454;6.736;2022-12-07T03:00:05;22.73;;;16.43;;
5351;SDS011;2698;51.454;6.736;2022-12-07T03:02:36;19.53;;;15.87;;
5351;SDS011;2698;51.454;6.736;2022-12-07T03:05:20;27.30;;;16.67;;
5351;SDS011;2698;51.454;6.736;2022-12-07T03:08:07;20.83;;;16.30;;
5351;SDS011;2698;51.454;6.736;2022-12-07T03:10:40;31.83;;;17.07;;
5351;SDS011;2698;51.454;6.736;2022-12-07T03:13:12;22.80;;;16.33;;
5351;SDS011;2698;51.454;6.736;2022-12-07T03:15:49;34.27;;;18.00;;
5351;SDS011;2698;51.454;6.736;2022-12-07T03:18:20;20.57;;;16.60;;
5351;SDS011;2698;51.454;6.736;2022-12-07T03:20:50;30.07;;;17.37;;
5351;SDS011;2698;51.454;6.736;2022-12-07T03:23:21;27.97;;;16.30;;
5351;SDS011;2698;51.454;6.736;2022-12-07T03:25:52;25.23;;;16.80;;
5351;SDS011;2698;51.454;6.736;2022-12-07T03:28:27;22.60;;;17.07;;
5351;SDS011;2698;51.454;6.736;2022-12-07T03:30:59;23.20;;;16.67;;
5351;SDS011;2698;51.454;6.736;2022-12-07T03:33:31;31.67;;;16.47;;
5351;SDS011;2698;51.454;6.736;2022-12-07T03:36:01;26.87;;;17.00;;
5351;SDS011;2698;51.454;6.736;2022-12-07T03:38:32;23.30;;;16.40;;
5351;SDS011;2698;51.454;6.736;2022-12-07T03:41:04;23.90;;;17.40;;
5351;SDS011;2698;51.454;6.736;2022-12-07T03:43:35;22.40;;;16.57;;
5351;SDS011;2698;51.454;6.736;2022-12-07T03:46:06;28.50;;;17.57;;
5351;SDS011;2698;51.454;6.736;2022-12-07T03:48:45;23.87;;;17.37;;
5351;SDS011;2698;51.454;6.736;2022-12-07T03:51:20;23.00;;;17.40;;
5351;SDS011;2698;51.454;6.736;2022-12-07T03:53:51;27.87;;;17.50;;
5351;SDS011;2698;51.454;6.736;2022-12-07T03:56:23;34.80;;;19.00;;
5351;SDS011;2698;51.454;6.736;2022-12-07T03:58:50;24.03;;;17.17;;
5351;SDS011;2698;51.454;6.736;2022-12-07T04:01:20;24.20;;;17.07;;
5351;SDS011;2698;51.454;6.736;2022-12-07T04:03:49;22.43;;;16.87;;
5351;SDS011;2698;51.454;6.736;2022-12-07T04:06:16;28.63;;;16.60;;
5351;SDS011;2698;51.454;6.736;2022-12-07T04:08:42;24.67;;;18.20;;
5351;SDS011;2698;51.454;6.736;2022-12-07T04:11:09;23.90;;;17.17;;
5351;SDS011;2698;51.454;6.736;2022-12-07T04:13:36;25.57;;;16.77;;
5351;SDS011;2698;51.454;6.736;2022-12-07T04:16:17;26.53;;;18.57;;
5351;SDS011;2698;51.454;6.736;2022-12-07T04:18:45;23.00;;;17.10;;
5351;SDS011;2698;51.454;6.736;2022-12-07T04:21:12;28.60;;;17.33;;
5351;SDS011;2698;51.454;6.736;2022-12-07T04:23:38;24.07;;;16.97;;
5351;SDS011;2698;51.454;6.736;2022-12-07T04:26:05;23.20;;;16.80;;
5351;SDS011;2698;51.454;6.736;2022-12-07T04:28:32;23.00;;;16.23;;
5351;SDS011;2698;51.454;6.736;2022-12-07T04:30:59;26.90;;;16.47;;
5351;SDS011;2698;51.454;6.736;2022-12-07T04:33:25;27.10;;;17.47;;
5351;SDS011;2698;51.454;6.736;2022-12-07T04:35:53;20.17;;;14.93;;
5351;SDS011;2698;51.454;6.736;2022-12-07T04:38:20;23.80;;;16.43;;
5351;SDS011;2698;51.454;6.736;2022-12-07T04:40:47;24.83;;;15.70;;
5351;SDS011;2698;51.454;6.736;2022-12-07T04:43:14;25.70;;;16.80;;
5351;SDS011;2698;51.454;6.736;2022-12-07T04:45:44;19.13;;;14.10;;
5351;SDS011;2698;51.454;6.736;2022-12-07T04:48:12;25.60;;;15.77;;
5351;SDS011;2698;51.454;6.736;2022-12-07T04:50:39;24.10;;;16.20;;
5351;SDS011;2698;51.454;6.736;2022-12-07T04:53:07;18.50;;;15.07;;
5351;SDS011;2698;51.454;6.736;2022-12-07T04:55:33;29.00;;;15.23;;
5351;SDS011;2698;51.454;6.736;2022-12-07T04:58:00;20.87;;;13.27;;
5351;SDS011;2698;51.454;6.736;2022-12-07T05:00:27;30.23;;;14.97;;
5351;SDS011;2698;51.454;6.736;2022-12-07T05:02:54;30.30;;;16.67;;
5351;SDS011;2698;51.454;6.736;2022-12-07T05:05:20;17.73;;;14.47;;
5351;SDS011;2698;51.454;6.736;2022-12-07T05:07:47;23.93;;;17.20;;
5351;SDS011;2698;51.454;6.736;2022-12-07T05:10:15;23.63;;;14.20;;
5351;SDS011;2698;51.454;6.736;2022-12-07T05:12:42;26.60;;;15.93;;
5351;SDS011;2698;51.454;6.736;2022-12-07T05:15:10;23.53;;;13.90;;
5351;SDS011;2698;51.454;6.736;2022-12-07T05:17:37;24.83;;;14.83;;
5351;SDS011;2698;51.454;6.736;2022-12-07T05:20:04;18.90;;;13.70;;
5351;SDS011;2698;51.454;6.736;2022-12-07T05:22:32;21.80;;;14.03;;
5351;SDS011;2698;51.454;6.736;2022-12-07T05:24:58;21.77;;;13.80;;
5351;SDS011;2698;51.454;6.736;2022-12-07T05:27:26;18.80;;;13.10;;
5351;SDS011;2698;51.454;6.736;2022-12-07T05:29:53;23.63;;;13.20;;
5351;SDS011;2698;51.454;6.736;2022-12-07T05:32:20;35.47;;;13.87;;
5351;SDS011;2698;51.454;6.736;2022-12-07T05:34:46;19.20;;;13.03;;
5351;SDS011;2698;51.454;6.736;2022-12-07T05:37:13;22.60;;;11.73;;
5351;SDS011;2698;51.454;6.736;2022-12-07T05:39:40;23.57;;;12.57;;
5351;SDS011;2698;51.454;6.736;2022-12-07T05:42:08;21.20;;;12.53;;
5351;SDS011;2698;51.454;6.736;2022-12-07T05:44:40;17.27;;;11.40;;
5351;SDS011;2698;51.454;6.736;2022-12-07T05:47:08;24.33;;;12.53;;
5351;SDS011;2698;51.454;6.736;2022-12-07T05:49:34;22.20;;;11.53;;
5351;SDS011;2698;51.454;6.736;2022-12-07T05:52:01;29.10;;;12.40;;
5351;SDS011;2698;51.454;6.736;2022-12-07T05:54:28;21.43;;;12.00;;
5351;SDS011;2698;51.454;6.736;2022-12-07T05:56:55;15.10;;;11.70;;
5351;SDS011;2698;51.454;6.736;2022-12-07T05:59:22;17.03;;;11.27;;
5351;SDS011;2698;51.454;6.736;2022-12-07T06:01:49;14.80;;;11.27;;
5351;SDS011;2698;51.454;6.736;2022-12-07T06:04:16;19.57;;;10.57;;
5351;SDS011;2698;51.454;6.736;2022-12-07T06:06:44;28.17;;;12.33;;
5351;SDS011;2698;51.454;6.736;2022-12-07T06:09:11;21.97;;;12.67;;
5351;SDS011;2698;51.454;6.736;2022-12-07T06:11:38;18.53;;;11.20;;
5351;SDS011;2698;51.454;6.736;2022-12-07T06:14:23;22.23;;;12.10;;
5351;SDS011;2698;51.454;6.736;2022-12-07T06:16:51;19.33;;;11.00;;
5351;SDS011;2698;51.454;6.736;2022-12-07T06:19:18;18.03;;;12.37;;
5351;SDS011;2698;51.454;6.736;2022-12-07T06:21:44;15.53;;;10.23;;
5351;SDS011;2698;51.454;6.736;2022-12-07T06:24:11;19.93;;;10.87;;
5351;SDS011;2698;51.454;6.736;2022-12-07T06:26:39;21.53;;;10.93;;
5351;SDS011;2698;51.454;6.736;2022-12-07T06:29:07;16.80;;;11.10;;
5351;SDS011;2698;51.454;6.736;2022-12-07T06:31:34;18.50;;;12.43;;
5351;SDS011;2698;51.454;6.736;2022-12-07T06:34:03;22.73;;;12.13;;
5351;SDS011;2698;51.454;6.736;2022-12-07T06:36:32;18.73;;;11.23;;
5351;SDS011;2698;51.454;6.736;2022-12-07T06:38:59;17.30;;;10.40;;
5351;SDS011;2698;51.454;6.736;2022-12-07T06:41:26;13.97;;;10.87;;
5351;SDS011;2698;51.454;6.736;2022-12-07T06:43:52;19.70;;;11.63;;
5351;SDS011;2698;51.454;6.736;2022-12-07T06:46:19;21.07;;;10.60;;
5351;SDS011;2698;51.454;6.736;2022-12-07T06:48:46;21.43;;;11.57;;
5351;SDS011;2698;51.454;6.736;2022-12-07T06:51:14;14.27;;;9.73;;
5351;SDS011;2698;51.454;6.736;2022-12-07T06:53:41;13.73;;;10.27;;
5351;SDS011;2698;51.454;6.736;2022-12-07T06:56:08;16.70;;;9.80;;
5351;SDS011;2698;51.454;6.736;2022-12-07T06:58:34;18.90;;;11.30;;
5351;SDS011;2698;51.454;6.736;2022-12-07T07:01:01;18.33;;;11.33;;
5351;SDS011;2698;51.454;6.736;2022-12-07T07:03:28;18.60;;;12.10;;
5351;SDS011;2698;51.454;6.736;2022-12-07T07:05:55;15.97;;;10.47;;
5351;SDS011;2698;51.454;6.736;2022-12-07T07:08:23;28.37;;;13.13;;
5351;SDS011;2698;51.454;6.736;2022-12-07T07:10:50;22.70;;;10.93;;
5351;SDS011;2698;51.454;6.736;2022-12-07T07:13:17;20.03;;;10.80;;
5351;SDS011;2698;51.454;6.736;2022-12-07T07:15:44;23.93;;;11.03;;
5351;SDS011;2698;51.454;6.736;2022-12-07T07:18:10;23.43;;;11.00;;
5351;SDS011;2698;51.454;6.736;2022-12-07T07:20:37;21.90;;;12.03;;
5351;SDS011;2698;51.454;6.736;2022-12-07T07:23:05;19.80;;;12.57;;
5351;SDS011;2698;51.454;6.736;2022-12-07T07:25:33;19.80;;;12.70;;
5351;SDS011;2698;51.454;6.736;2022-12-07T07:28:00;17.10;;;11.87;;
5351;SDS011;2698;51.454;6.736;2022-12-07T07:30:27;24.67;;;14.60;;
5351;SDS011;2698;51.454;6.736;2022-12-07T07:32:56;16.20;;;12.33;;
5351;SDS011;2698;51.454;6.736;2022-12-07T07:35:23;23.93;;;13.27;;
5351;SDS011;2698;51.454;6.736;2022-12-07T07:37:49;20.80;;;14.23;;
5351;SDS011;2698;51.454;6.736;2022-12-07T07:40:16;20.60;;;13.70;;
5351;SDS011;2698;51.454;6.736;2022-12-07T07:42:46;24.80;;;11.80;;
5351;SDS011;2698;51.454;6.736;2022-12-07T07:45:13;21.63;;;12.67;;
5351;SDS011;2698;51.454;6.736;2022-12-07T07:47:40;16.47;;;11.87;;
5351;SDS011;2698;51.454;6.736;2022-12-07T07:50:07;30.40;;;15.50;;
5351;SDS011;2698;51.454;6.736;2022-12-07T07:52:34;22.80;;;16.20;;
5351;SDS011;2698;51.454;6.736;2022-12-07T07:55:02;25.53;;;16.53;;
5351;SDS011;2698;51.454;6.736;2022-12-07T07:57:29;38.70;;;20.70;;
5351;SDS011;2698;51.454;6.736;2022-12-07T07:59:57;31.63;;;16.70;;
5351;SDS011;2698;51.454;6.736;2022-12-07T08:02:24;28.50;;;17.97;;
5351;SDS011;2698;51.454;6.736;2022-12-07T08:04:51;21.13;;;14.03;;
5351;SDS011;2698;51.454;6.736;2022-12-07T08:07:18;30.10;;;18.87;;
5351;SDS011;2698;51.454;6.736;2022-12-07T08:09:44;36.53;;;20.13;;
5351;SDS011;2698;51.454;6.736;2022-12-07T08:12:11;27.20;;;15.13;;
5351;SDS011;2698;51.454;6.736;2022-12-07T08:14:38;30.70;;;17.53;;
5351;SDS011;2698;51.454;6.736;2022-12-07T08:17:07;33.07;;;20.43;;
5351;SDS011;2698;51.454;6.736;2022-12-07T08:19:34;29.50;;;16.97;;
5351;SDS011;2698;51.454;6.736;2022-12-07T08:22:01;40.07;;;21.53;;
5351;SDS011;2698;51.454;6.736;2022-12-07T08:24:28;29.37;;;19.80;;
5351;SDS011;2698;51.454;6.736;2022-12-07T08:26:55;43.90;;;19.80;;
5351;SDS011;2698;51.454;6.736;2022-12-07T08:29:22;33.97;;;17.60;;
5351;SDS011;2698;51.454;6.736;2022-12-07T08:31:48;36.23;;;22.03;;
5351;SDS011;2698;51.454;6.736;2022-12-07T08:34:17;28.93;;;18.73;;
5351;SDS011;2698;51.454;6.736;2022-12-07T08:36:44;56.70;;;27.07;;
5351;SDS011;2698;51.454;6.736;2022-12-07T08:39:10;40.80;;;20.50;;
5351;SDS011;2698;51.454;6.736;2022-12-07T08:41:37;47.07;;;26.00;;
5351;SDS011;2698;51.454;6.736;2022-12-07T08:44:04;32.30;;;19.70;;
5351;SDS011;2698;51.454;6.736;2022-12-07T08:46:31;47.57;;;24.03;;
5351;SDS011;2698;51.454;6.736;2022-12-07T08:49:03;25.37;;;15.83;;
5351;SDS011;2698;51.454;6.736;2022-12-07T08:51:35;36.90;;;18.33;;
5351;SDS011;2698;51.454;6.736;2022-12-07T08:54:03;15.60;;;12.23;;
5351;SDS011;2698;51.454;6.736;2022-12-07T08:56:32;22.27;;;13.60;;
5351;SDS011;2698;51.454;6.736;2022-12-07T08:59:00;22.03;;;12.67;;
5351;SDS011;2698;51.454;6.736;2022-12-07T09:01:27;27.17;;;11.90;;
5351;SDS011;2698;51.454;6.736;2022-12-07T09:03:54;26.33;;;10.20;;
5351;SDS011;2698;51.454;6.736;2022-12-07T09:06:21;16.93;;;10.83;;
5351;SDS011;2698;51.454;6.736;2022-12-07T09:08:51;15.10;;;12.40;;
5351;SDS011;2698;51.454;6.736;2022-12-07T09:11:21;12.40;;;9.80;;
5351;SDS011;2698;51.454;6.736;2022-12-07T09:13:47;17.23;;;10.73;;
5351;SDS011;2698;51.454;6.736;2022-12-07T09:16:14;22.03;;;10.40;;
5351;SDS011;2698;51.454;6.736;2022-12-07T09:18:41;15.10;;;9.70;;
5351;SDS011;2698;51.454;6.736;2022-12-07T09:24:06;16.30;;;10.00;;
5351;SDS011;2698;51.454;6.736;2022-12-07T09:26:34;15.93;;;9.60;;
5351;SDS011;2698;51.454;6.736;2022-12-07T09:29:01;10.27;;;8.87;;
5351;SDS011;2698;51.454;6.736;2022-12-07T09:31:29;12.47;;;8.90;;
5351;SDS011;2698;51.454;6.736;2022-12-07T09:33:56;17.00;;;9.57;;
5351;SDS011;2698;51.454;6.736;2022-12-07T09:36:23;15.00;;;8.33;;
5351;SDS011;2698;51.454;6.736;2022-12-07T09:38:50;11.60;;;7.77;;
5351;SDS011;2698;51.454;6.736;2022-12-07T09:41:19;10.43;;;7.40;;
5351;SDS011;2698;51.454;6.736;2022-12-07T09:43:46;9.93;;;7.33;;
5351;SDS011;2698;51.454;6.736;2022-12-07T09:46:15;15.07;;;7.87;;
5351;SDS011;2698;51.454;6.736;2022-12-07T09:48:44;13.90;;;8.07;;
5351;SDS011;2698;51.454;6.736;2022-12-07T09:51:13;9.90;;;8.00;;
5351;SDS011;2698;51.454;6.736;2022-12-07T09:53:42;18.73;;;7.50;;
5351;SDS011;2698;51.454;6.736;2022-12-07T09:56:11;10.03;;;6.90;;
5351;SDS011;2698;51.454;6.736;2022-12-07T09:58:41;11.43;;;6.77;;
5351;SDS011;2698;51.454;6.736;2022-12-07T10:01:11;9.30;;;6.97;;
5351;SDS011;2698;51.454;6.736;2022-12-07T10:03:40;17.40;;;7.60;;
5351;SDS011;2698;51.454;6.736;2022-12-07T10:06:11;13.10;;;6.83;;
5351;SDS011;2698;51.454;6.736;2022-12-07T10:08:39;13.47;;;7.77;;
5351;SDS011;2698;51.454;6.736;2022-12-07T10:11:08;18.57;;;6.87;;
5351;SDS011;2698;51.454;6.736;2022-12-07T10:13:36;12.27;;;6.73;;
5351;SDS011;2698;51.454;6.736;2022-12-07T10:16:06;9.73;;;6.80;;
5351;SDS011;2698;51.454;6.736;2022-12-07T10:18:53;20.90;;;6.70;;
5351;SDS011;2698;51.454;6.736;2022-12-07T10:21:21;8.80;;;6.27;;
5351;SDS011;2698;51.454;6.736;2022-12-07T10:23:59;9.80;;;5.80;;
5351;SDS011;2698;51.454;6.736;2022-12-07T10:26:29;8.90;;;5.50;;
5351;SDS011;2698;51.454;6.736;2022-12-07T10:28:58;14.23;;;6.03;;
5351;SDS011;2698;51.454;6.736;2022-12-07T10:31:28;8.67;;;4.87;;
5351;SDS011;2698;51.454;6.736;2022-12-07T10:33:56;7.20;;;5.83;;
5351;SDS011;2698;51.454;6.736;2022-12-07T10:36:25;19.07;;;5.77;;
5351;SDS011;2698;51.454;6.736;2022-12-07T10:38:58;6.80;;;5.43;;
5351;SDS011;2698;51.454;6.736;2022-12-07T10:41:26;10.90;;;6.17;;
5351;SDS011;2698;51.454;6.736;2022-12-07T10:43:54;10.17;;;5.60;;
5351;SDS011;2698;51.454;6.736;2022-12-07T10:46:39;10.73;;;5.30;;
5351;SDS011;2698;51.454;6.736;2022-12-07T10:49:24;12.63;;;4.93;;
5351;SDS011;2698;51.454;6.736;2022-12-07T10:52:01;10.20;;;5.80;;
5351;SDS011;2698;51.454;6.736;2022-12-07T10:54:37;10.30;;;5.30;;
5351;SDS011;2698;51.454;6.736;2022-12-07T10:57:25;11.13;;;6.20;;
5351;SDS011;2698;51.454;6.736;2022-12-07T11:00:04;10.17;;;5.30;;
5351;SDS011;2698;51.454;6.736;2022-12-07T11:02:50;19.07;;;6.03;;
5351;SDS011;2698;51.454;6.736;2022-12-07T11:05:48;9.83;;;5.10;;
5351;SDS011;2698;51.454;6.736;2022-12-07T11:08:21;16.77;;;8.17;;
5351;SDS011;2698;51.454;6.736;2022-12-07T11:11:05;8.23;;;5.03;;
5351;SDS011;2698;51.454;6.736;2022-12-07T11:13:39;10.10;;;6.57;;
5351;SDS011;2698;51.454;6.736;2022-12-07T11:16:21;9.30;;;5.50;;
5351;SDS011;2698;51.454;6.736;2022-12-07T11:19:01;11.10;;;5.40;;
5351;SDS011;2698;51.454;6.736;2022-12-07T11:21:45;7.00;;;4.57;;
5351;SDS011;2698;51.454;6.736;2022-12-07T11:24:19;10.73;;;4.90;;
5351;SDS011;2698;51.454;6.736;2022-12-07T11:27:01;18.73;;;6.30;;
5351;SDS011;2698;51.454;6.736;2022-12-07T11:29:50;12.53;;;6.37;;
5351;SDS011;2698;51.454;6.736;2022-12-07T11:32:41;8.43;;;4.40;;
5351;SDS011;2698;51.454;6.736;2022-12-07T11:35:18;15.23;;;5.30;;
5351;SDS011;2698;51.454;6.736;2022-12-07T11:37:51;9.60;;;4.30;;
5351;SDS011;2698;51.454;6.736;2022-12-07T11:40:26;12.63;;;4.30;;
5351;SDS011;2698;51.454;6.736;2022-12-07T11:42:59;9.60;;;4.73;;
5351;SDS011;2698;51.454;6.736;2022-12-07T11:45:30;12.13;;;5.53;;
5351;SDS011;2698;51.454;6.736;2022-12-07T11:47:59;11.60;;;5.60;;
5351;SDS011;2698;51.454;6.736;2022-12-07T11:50:32;13.83;;;5.23;;
5351;SDS011;2698;51.454;6.736;2022-12-07T11:53:03;9.03;;;4.23;;
5351;SDS011;2698;51.454;6.736;2022-12-07T11:55:40;8.90;;;4.40;;
5351;SDS011;2698;51.454;6.736;2022-12-07T11:58:14;23.33;;;10.13;;
5351;SDS011;2698;51.454;6.736;2022-12-07T12:00:55;21.53;;;9.53;;
5351;SDS011;2698;51.454;6.736;2022-12-07T12:03:35;10.80;;;4.90;;
5351;SDS011;2698;51.454;6.736;2022-12-07T12:06:08;7.73;;;5.17;;
5351;SDS011;2698;51.454;6.736;2022-12-07T12:08:36;16.73;;;6.13;;
5351;SDS011;2698;51.454;6.736;2022-12-07T12:11:09;14.53;;;5.10;;
5351;SDS011;2698;51.454;6.736;2022-12-07T12:19:55;11.67;;;4.50;;
5351;SDS011;2698;51.454;6.736;2022-12-07T12:22:28;11.13;;;4.07;;
5351;SDS011;2698;51.454;6.736;2022-12-07T12:25:02;9.57;;;3.80;;
5351;SDS011;2698;51.454;6.736;2022-12-07T12:27:32;10.90;;;4.10;;
5351;SDS011;2698;51.454;6.736;2022-12-07T12:30:02;6.60;;;3.43;;
5351;SDS011;2698;51.454;6.736;2022-12-07T12:32:34;8.10;;;4.23;;
5351;SDS011;2698;51.454;6.736;2022-12-07T12:35:21;8.73;;;3.60;;
5351;SDS011;2698;51.454;6.736;2022-12-07T12:37:56;8.30;;;4.23;;
5351;SDS011;2698;51.454;6.736;2022-12-07T12:40:51;13.00;;;3.93;;
5351;SDS011;2698;51.454;6.736;2022-12-07T12:46:36;14.60;;;4.20;;
5351;SDS011;2698;51.454;6.736;2022-12-07T12:49:15;4.73;;;3.27;;
5351;SDS011;2698;51.454;6.736;2022-12-07T12:55:27;10.47;;;3.70;;
5351;SDS011;2698;51.454;6.736;2022-12-07T12:58:30;8.80;;;3.40;;
5351;SDS011;2698;51.454;6.736;2022-12-07T13:04:12;12.53;;;4.03;;
5351;SDS011;2698;51.454;6.736;2022-12-07T13:06:44;9.03;;;3.00;;
5351;SDS011;2698;51.454;6.736;2022-12-07T13:09:17;9.03;;;4.23;;
5351;SDS011;2698;51.454;6.736;2022-12-07T13:11:49;14.63;;;3.30;;
5351;SDS011;2698;51.454;6.736;2022-12-07T13:20:45;6.87;;;4.37;;
5351;SDS011;2698;51.454;6.736;2022-12-07T13:23:13;9.50;;;3.83;;
5351;SDS011;2698;51.454;6.736;2022-12-07T13:25:46;6.00;;;3.60;;
5351;SDS011;2698;51.454;6.736;2022-12-07T13:28:19;3.40;;;2.90;;
5351;SDS011;2698;51.454;6.736;2022-12-07T13:30:54;8.70;;;4.13;;
5351;SDS011;2698;51.454;6.736;2022-12-07T13:33:37;7.17;;;4.20;;
5351;SDS011;2698;51.454;6.736;2022-12-07T13:36:04;4.90;;;3.77;;
5351;SDS011;2698;51.454;6.736;2022-12-07T13:38:39;8.13;;;3.50;;
5351;SDS011;2698;51.454;6.736;2022-12-07T13:41:16;10.80;;;3.47;;
5351;SDS011;2698;51.454;6.736;2022-12-07T13:43:47;14.63;;;3.97;;
5351;SDS011;2698;51.454;6.736;2022-12-07T13:46:17;7.33;;;3.60;;
5351;SDS011;2698;51.454;6.736;2022-12-07T13:48:47;11.50;;;3.83;;
5351;SDS011;2698;51.454;6.736;2022-12-07T13:51:20;10.13;;;3.37;;
5351;SDS011;2698;51.454;6.736;2022-12-07T13:53:49;10.37;;;3.40;;
5351;SDS011;2698;51.454;6.736;2022-12-07T13:56:18;8.13;;;3.50;;
5351;SDS011;2698;51.454;6.736;2022-12-07T13:58:48;3.27;;;2.50;;
5351;SDS011;2698;51.454;6.736;2022-12-07T14:01:15;10.40;;;2.87;;
5351;SDS011;2698;51.454;6.736;2022-12-07T14:03:42;7.40;;;3.40;;
5351;SDS011;2698;51.454;6.736;2022-12-07T14:06:16;7.30;;;3.00;;
5351;SDS011;2698;51.454;6.736;2022-12-07T14:08:50;5.07;;;3.03;;
5351;SDS011;2698;51.454;6.736;2022-12-07T14:11:31;5.80;;;2.90;;
5351;SDS011;2698;51.454;6.736;2022-12-07T14:14:00;9.17;;;3.40;;
5351;SDS011;2698;51.454;6.736;2022-12-07T14:16:30;6.70;;;2.70;;
5351;SDS011;2698;51.454;6.736;2022-12-07T14:18:59;9.83;;;3.40;;
5351;SDS011;2698;51.454;6.736;2022-12-07T14:21:28;12.53;;;3.97;;
5351;SDS011;2698;51.454;6.736;2022-12-07T14:24:04;10.73;;;3.67;;
5351;SDS011;2698;51.454;6.736;2022-12-07T14:26:36;7.50;;;3.40;;
5351;SDS011;2698;51.454;6.736;2022-12-07T14:29:21;9.80;;;2.53;;
5351;SDS011;2698;51.454;6.736;2022-12-07T14:31:56;10.37;;;3.37;;
5351;SDS011;2698;51.454;6.736;2022-12-07T14:34:23;11.70;;;3.70;;
5351;SDS011;2698;51.454;6.736;2022-12-07T14:36:51;7.80;;;3.90;;
5351;SDS011;2698;51.454;6.736;2022-12-07T14:39:17;8.23;;;2.57;;
5351;SDS011;2698;51.454;6.736;2022-12-07T14:41:44;9.00;;;4.40;;
5351;SDS011;2698;51.454;6.736;2022-12-07T14:44:22;15.37;;;4.60;;
5351;SDS011;2698;51.454;6.736;2022-12-07T14:46:49;17.53;;;5.20;;
5351;SDS011;2698;51.454;6.736;2022-12-07T14:49:17;11.63;;;4.80;;
5351;SDS011;2698;51.454;6.736;2022-12-07T14:51:44;21.00;;;6.33;;
5351;SDS011;2698;51.454;6.736;2022-12-07T14:54:13;14.30;;;5.83;;
5351;SDS011;2698;51.454;6.736;2022-12-07T14:56:42;16.17;;;6.57;;
5351;SDS011;2698;51.454;6.736;2022-12-07T14:59:10;27.00;;;11.70;;
5351;SDS011;2698;51.454;6.736;2022-12-07T15:01:39;15.87;;;6.00;;
5351;SDS011;2698;51.454;6.736;2022-12-07T15:04:05;19.13;;;6.57;;
5351;SDS011;2698;51.454;6.736;2022-12-07T15:06:32;13.00;;;3.97;;
5351;SDS011;2698;51.454;6.736;2022-12-07T15:08:59;8.73;;;3.80;;
5351;SDS011;2698;51.454;6.736;2022-12-07T15:11:26;17.47;;;3.90;;
5351;SDS011;2698;51.454;6.736;2022-12-07T15:13:53;10.80;;;4.10;;
5351;SDS011;2698;51.454;6.736;2022-12-07T15:16:34;16.97;;;5.33;;
5351;SDS011;2698;51.454;6.736;2022-12-07T15:19:02;8.73;;;4.50;;
5351;SDS011;2698;51.454;6.736;2022-12-07T15:21:29;8.33;;;3.90;;
5351;SDS011;2698;51.454;6.736;2022-12-07T15:23:56;5.23;;;3.77;;
5351;SDS011;2698;51.454;6.736;2022-12-07T15:26:23;9.20;;;4.50;;
5351;SDS011;2698;51.454;6.736;2022-12-07T15:28:49;9.27;;;3.77;;
5351;SDS011;2698;51.454;6.736;2022-12-07T15:31:18;12.97;;;5.30;;
5351;SDS011;2698;51.454;6.736;2022-12-07T15:33:45;16.50;;;5.13;;
5351;SDS011;2698;51.454;6.736;2022-12-07T15:36:15;9.67;;;5.00;;
5351;SDS011;2698;51.454;6.736;2022-12-07T15:38:46;17.10;;;5.70;;
5351;SDS011;2698;51.454;6.736;2022-12-07T15:41:13;15.80;;;4.83;;
5351;SDS011;2698;51.454;6.736;2022-12-07T15:43:40;17.23;;;5.30;;
5351;SDS011;2698;51.454;6.736;2022-12-07T15:46:23;17.50;;;4.30;;